createdAt,value
2019-02-28T11:06:59.310Z,562.50
2019-02-28T11:07:56.672Z,562.50
2019-02-28T11:08:57.410Z,568.12
2019-02-28T11:09:58.741Z,568.12
2019-02-28T11:10:56.635Z,568.12
2019-02-28T11:11:56.590Z,568.12
2019-02-28T11:12:57.106Z,562.50
2019-02-28T11:13:57.602Z,545.62
2019-02-28T11:14:56.605Z,523.12
2019-02-28T11:15:56.579Z,500.62
2019-02-28T11:16:59.375Z,483.75
2019-02-28T11:17:56.513Z,472.50
2019-02-28T11:18:56.542Z,461.25
2019-02-28T11:19:56.519Z,455.62
2019-02-28T11:20:58.097Z,450.00
2019-02-28T11:21:56.504Z,444.37
2019-02-28T11:22:56.452Z,438.75
2019-02-28T11:23:56.441Z,433.12
2019-02-28T11:24:57.319Z,421.87
2019-02-28T11:25:56.466Z,410.62
2019-02-28T11:26:56.436Z,393.75
2019-02-28T11:27:56.421Z,382.50
2019-02-28T11:28:56.425Z,365.62
2019-02-28T11:29:56.433Z,348.75
2019-02-28T11:30:56.380Z,331.87
2019-02-28T11:31:56.350Z,326.25
2019-02-28T11:32:56.345Z,331.87
2019-02-28T11:33:56.356Z,337.50
2019-02-28T11:34:56.329Z,337.50
2019-02-28T11:35:58.826Z,337.50
2019-02-28T11:36:56.299Z,337.50
2019-02-28T11:37:56.293Z,326.25
2019-02-28T11:38:56.306Z,320.62
2019-02-28T11:39:56.267Z,315.00
2019-02-28T11:40:57.498Z,309.37
2019-02-28T11:41:56.339Z,309.37
2019-02-28T11:42:56.243Z,309.37
2019-02-28T11:43:56.277Z,315.00
2019-02-28T11:44:56.418Z,315.00
2019-02-28T11:45:56.514Z,309.37
2019-02-28T11:46:56.198Z,315.00
2019-02-28T11:47:56.202Z,315.00
2019-02-28T11:48:56.214Z,315.00
2019-02-28T11:49:56.141Z,315.00
2019-02-28T11:50:56.171Z,315.00
2019-02-28T11:51:56.159Z,315.00
2019-02-28T11:53:04.856Z,315.00
2019-02-28T11:54:25.709Z,320.62
2019-02-28T11:55:27.096Z,320.62
2019-02-28T11:56:28.778Z,331.87
2019-02-28T11:57:25.606Z,331.87
2019-02-28T11:58:25.616Z,326.25
2019-02-28T11:59:25.589Z,320.62
2019-02-28T12:00:26.285Z,326.25
2019-02-28T12:01:25.557Z,331.87
2019-02-28T12:02:25.548Z,331.87
2019-02-28T12:03:25.514Z,320.62
2019-02-28T12:04:25.502Z,315.00
2019-02-28T12:05:25.560Z,309.37
2019-02-28T12:06:26.299Z,303.75
2019-02-28T12:07:25.552Z,298.12
2019-02-28T12:08:25.500Z,298.12
2019-02-28T12:09:25.455Z,298.12
2019-02-28T12:10:26.927Z,298.12
2019-02-28T12:11:25.430Z,298.12
2019-02-28T12:12:25.499Z,298.12
2019-02-28T12:13:25.430Z,298.12
2019-02-28T12:14:26.463Z,303.75
2019-02-28T12:15:25.381Z,303.75
2019-02-28T12:16:25.393Z,303.75
2019-02-28T12:17:25.540Z,303.75
2019-02-28T12:18:26.202Z,303.75
2019-02-28T12:19:25.379Z,309.37
2019-02-28T12:20:26.569Z,309.37
2019-02-28T12:21:25.314Z,309.37
2019-02-28T12:22:25.311Z,309.37
2019-02-28T12:23:25.401Z,309.37
2019-02-28T12:24:25.319Z,309.37
2019-02-28T12:25:25.346Z,309.37
2019-02-28T12:26:25.298Z,309.37
2019-02-28T12:27:27.397Z,309.37
2019-02-28T12:28:25.238Z,315.00
2019-02-28T12:29:25.242Z,315.00
2019-02-28T12:30:25.979Z,315.00
2019-02-28T12:31:25.205Z,315.00
2019-02-28T12:32:25.212Z,315.00
2019-02-28T12:33:25.184Z,315.00
2019-02-28T12:34:27.964Z,315.00
2019-02-28T12:35:25.306Z,315.00
2019-02-28T12:36:25.159Z,315.00
2019-02-28T12:37:25.587Z,315.00
2019-02-28T12:38:28.283Z,315.00
2019-02-28T12:39:25.125Z,315.00
2019-02-28T12:40:25.194Z,315.00
2019-02-28T12:41:26.034Z,315.00
2019-02-28T12:42:25.476Z,315.00
2019-02-28T12:43:25.162Z,315.00
2019-02-28T12:44:25.075Z,320.62
2019-02-28T12:45:25.169Z,320.62
2019-02-28T12:46:25.045Z,320.62
2019-02-28T12:47:25.048Z,320.62
2019-02-28T12:48:27.022Z,320.62
2019-02-28T12:49:27.052Z,320.62
2019-02-28T12:50:25.263Z,320.62
2019-02-28T12:51:24.994Z,320.62
2019-02-28T12:52:25.007Z,320.62
2019-02-28T12:53:26.128Z,320.62
2019-02-28T12:54:26.044Z,326.25
2019-02-28T12:55:24.991Z,326.25
2019-02-28T12:56:24.965Z,331.87
2019-02-28T12:57:24.940Z,331.87
2019-02-28T12:58:24.916Z,331.87
2019-02-28T12:59:24.920Z,337.50
2019-02-28T13:00:24.915Z,337.50
2019-02-28T13:01:24.951Z,337.50
2019-02-28T13:02:24.884Z,343.12
2019-02-28T13:03:24.893Z,337.50
2019-02-28T13:04:24.964Z,337.50
2019-02-28T13:05:24.853Z,337.50
2019-02-28T13:06:25.215Z,337.50
2019-02-28T13:07:24.841Z,337.50
2019-02-28T13:08:24.878Z,337.50
2019-02-28T13:09:24.819Z,337.50
2019-02-28T13:10:28.030Z,337.50
2019-02-28T13:11:24.783Z,331.87
2019-02-28T13:12:24.863Z,337.50
2019-02-28T13:13:27.531Z,326.25
2019-02-28T13:14:25.799Z,320.62
2019-02-28T13:15:24.840Z,326.25
2019-02-28T13:16:25.711Z,331.87
2019-02-28T13:17:24.717Z,337.50
2019-02-28T13:18:25.253Z,343.12
2019-02-28T13:19:24.703Z,343.12
2019-02-28T13:20:24.671Z,343.12
2019-02-28T13:21:24.662Z,337.50
2019-02-28T13:22:25.535Z,331.87
2019-02-28T13:23:24.669Z,320.62
2019-02-28T13:24:24.657Z,315.00
2019-02-28T13:25:24.893Z,309.37
2019-02-28T13:26:24.617Z,309.37
2019-02-28T13:27:24.674Z,315.00
2019-02-28T13:28:24.588Z,320.62
2019-02-28T13:29:24.587Z,326.25
2019-02-28T13:30:24.578Z,331.87
2019-02-28T13:31:25.569Z,320.62
2019-02-28T13:32:24.604Z,303.75
2019-02-28T13:33:24.534Z,298.12
2019-02-28T13:34:28.591Z,315.00
2019-02-28T13:35:24.601Z,337.50
2019-02-28T13:36:24.539Z,382.50
2019-02-28T13:37:24.517Z,410.62
2019-02-28T13:38:24.492Z,438.75
2019-02-28T13:39:27.383Z,444.37
2019-02-28T13:40:49.835Z,433.12
2019-02-28T13:41:49.916Z,410.62
2019-02-28T13:42:49.808Z,393.75
2019-02-28T13:43:49.848Z,393.75
2019-02-28T13:44:49.792Z,393.75
2019-02-28T13:45:50.769Z,405.00
2019-02-28T13:46:49.838Z,444.37
2019-02-28T13:47:49.768Z,483.75
2019-02-28T13:48:50.625Z,517.50
2019-02-28T13:49:50.607Z,528.75
2019-02-28T13:50:49.715Z,523.12
2019-02-28T13:51:49.705Z,500.62
2019-02-28T13:52:52.394Z,472.50
2019-02-28T13:53:49.706Z,461.25
2019-02-28T13:54:49.691Z,444.37
2019-02-28T13:55:53.018Z,416.25
2019-02-28T13:57:14.718Z,382.50
2019-02-28T13:58:17.633Z,365.62
2019-02-28T13:59:39.908Z,360.00
2019-02-28T14:00:45.603Z,365.62
2019-02-28T14:02:04.756Z,360.00
2019-02-28T14:03:08.905Z,354.37
2019-02-28T14:04:04.657Z,354.37
2019-02-28T14:05:04.667Z,371.25
2019-02-28T14:06:04.614Z,405.00
2019-02-28T14:07:04.625Z,399.37
2019-02-28T14:08:09.612Z,393.75
2019-02-28T14:09:29.748Z,416.25
2019-02-28T14:10:33.470Z,405.00
2019-02-28T14:11:54.686Z,354.37
2019-02-28T14:12:57.136Z,320.62
2019-02-28T14:13:54.755Z,270.00
2019-02-28T14:14:54.660Z,230.62
2019-02-28T14:15:54.634Z,208.12
2019-02-28T14:16:54.638Z,202.50
2019-02-28T14:17:54.641Z,202.50
2019-02-28T14:18:54.829Z,185.62
2019-02-28T14:19:54.669Z,180.00
2019-02-28T14:20:54.583Z,135.00
2019-02-28T14:21:54.612Z,135.00
2019-02-28T14:22:54.552Z,151.87
2019-02-28T14:23:55.685Z,146.25
2019-02-28T14:24:54.621Z,157.50
2019-02-28T14:25:54.519Z,163.12
2019-02-28T14:26:54.517Z,180.00
2019-02-28T14:27:56.972Z,208.12
2019-02-28T14:28:54.510Z,258.75
2019-02-28T14:29:54.479Z,241.87
2019-02-28T14:30:57.620Z,225.00
2019-02-28T14:31:54.458Z,292.50
2019-02-28T14:32:54.454Z,354.37
2019-02-28T14:33:55.205Z,388.12
2019-02-28T14:34:57.284Z,416.25
2019-02-28T14:35:54.421Z,393.75
2019-02-28T14:36:54.428Z,421.87
2019-02-28T14:37:55.576Z,343.12
2019-02-28T14:38:54.498Z,298.12
2019-02-28T14:39:54.369Z,270.00
2019-02-28T14:40:54.377Z,264.37
2019-02-28T14:41:54.344Z,253.12
2019-02-28T14:42:54.343Z,247.50
2019-02-28T14:43:56.089Z,241.87
2019-02-28T14:44:54.340Z,241.87
2019-02-28T14:45:54.297Z,247.50
2019-02-28T14:46:54.312Z,258.75
2019-02-28T14:47:57.145Z,270.00
2019-02-28T14:48:54.336Z,298.12
2019-02-28T14:49:54.250Z,309.37
2019-02-28T14:50:54.867Z,309.37
2019-02-28T14:51:54.228Z,303.75
2019-02-28T14:52:54.237Z,270.00
2019-02-28T14:53:54.224Z,258.75
2019-02-28T14:54:57.071Z,241.87
2019-02-28T14:55:54.202Z,236.25
2019-02-28T14:56:54.224Z,236.25
2019-02-28T14:57:55.238Z,236.25
2019-02-28T14:58:57.379Z,241.87
2019-02-28T14:59:54.155Z,241.87
2019-02-28T15:00:54.141Z,275.62
2019-02-28T15:01:54.244Z,292.50
2019-02-28T15:02:54.151Z,315.00
2019-02-28T15:03:54.110Z,343.12
2019-02-28T15:04:54.104Z,337.50
2019-02-28T15:05:55.499Z,303.75
2019-02-28T15:06:54.061Z,292.50
2019-02-28T15:07:54.055Z,315.00
2019-02-28T15:08:54.658Z,298.12
2019-02-28T15:09:54.103Z,320.62
2019-02-28T15:10:54.037Z,326.25
2019-02-28T15:11:54.332Z,331.87
2019-02-28T15:12:55.314Z,326.25
2019-02-28T15:13:54.011Z,315.00
2019-02-28T15:14:54.012Z,315.00
2019-02-28T15:15:54.382Z,309.37
2019-02-28T15:16:53.983Z,320.62
2019-02-28T15:17:54.055Z,320.62
2019-02-28T15:18:54.284Z,298.12
2019-02-28T15:19:56.992Z,258.75
2019-02-28T15:20:53.927Z,236.25
2019-02-28T15:21:53.920Z,241.87
2019-02-28T15:22:56.195Z,230.62
2019-02-28T15:23:53.894Z,213.75
2019-02-28T15:24:53.863Z,191.25
2019-02-28T15:25:54.898Z,174.37
2019-02-28T15:26:53.848Z,163.12
2019-02-28T15:27:54.183Z,202.50
2019-02-28T15:28:53.856Z,236.25
2019-02-28T15:29:55.504Z,225.00
2019-02-28T15:30:53.799Z,163.12
2019-02-28T15:31:53.787Z,135.00
2019-02-28T15:32:54.318Z,112.50
2019-02-28T15:33:53.757Z,95.62
2019-02-28T15:34:53.783Z,90.00
2019-02-28T15:35:53.748Z,106.87
2019-02-28T15:36:55.631Z,101.25
2019-02-28T15:37:53.716Z,101.25
2019-02-28T15:38:53.722Z,106.87
2019-02-28T15:39:53.701Z,106.87
2019-02-28T15:40:55.731Z,101.25
2019-02-28T15:41:53.677Z,95.62
2019-02-28T15:42:54.429Z,90.00
2019-02-28T15:43:54.434Z,73.12
2019-02-28T15:44:53.643Z,73.12
2019-02-28T15:45:53.632Z,78.75
2019-02-28T15:46:55.694Z,78.75
2019-02-28T15:47:55.415Z,84.37
2019-02-28T15:48:53.605Z,78.75
2019-02-28T15:49:53.591Z,61.87
2019-02-28T15:50:53.571Z,50.62
2019-02-28T15:51:53.679Z,45.00
2019-02-28T15:52:53.559Z,39.37
2019-02-28T15:53:53.545Z,33.75
2019-02-28T15:54:56.936Z,28.12
2019-02-28T15:56:20.071Z,28.12
2019-02-28T15:57:18.665Z,22.50
2019-02-28T15:58:18.685Z,22.50
2019-02-28T15:59:18.638Z,22.50
2019-02-28T16:00:22.082Z,28.12
2019-02-28T16:01:18.603Z,28.12
2019-02-28T16:02:18.583Z,28.12
2019-02-28T16:03:18.584Z,28.12
2019-02-28T16:04:18.572Z,16.87
2019-02-28T16:05:18.581Z,16.87
2019-02-28T16:06:19.689Z,16.87
2019-02-28T16:07:18.548Z,16.87
2019-02-28T16:08:18.531Z,16.87
2019-02-28T16:09:18.803Z,22.50
2019-02-28T16:10:18.553Z,28.12
2019-02-28T16:11:18.490Z,28.12
2019-02-28T16:12:18.479Z,33.75
2019-02-28T16:13:18.471Z,39.37
2019-02-28T16:14:18.459Z,45.00
2019-02-28T16:15:18.446Z,50.62
2019-02-28T16:16:21.568Z,50.62
2019-02-28T16:17:18.484Z,50.62
2019-02-28T16:18:18.413Z,56.25
2019-02-28T16:19:18.796Z,61.87
2019-02-28T16:20:18.452Z,61.87
2019-02-28T16:21:18.397Z,73.12
2019-02-28T16:22:19.105Z,78.75
2019-02-28T16:23:18.366Z,84.37
2019-02-28T16:24:18.350Z,84.37
2019-02-28T16:25:18.336Z,84.37
2019-02-28T16:26:21.693Z,78.75
2019-02-28T16:27:18.326Z,73.12
2019-02-28T16:28:19.977Z,61.87
2019-02-28T16:29:20.498Z,56.25
2019-02-28T16:30:18.291Z,56.25
2019-02-28T16:31:18.785Z,56.25
2019-02-28T16:32:18.263Z,61.87
2019-02-28T16:33:20.917Z,67.50
2019-02-28T16:34:43.636Z,61.87
2019-02-28T16:35:46.748Z,50.62
2019-02-28T16:36:43.602Z,50.62
2019-02-28T16:37:43.587Z,45.00
2019-02-28T16:38:45.051Z,39.37
2019-02-28T16:39:43.567Z,39.37
2019-02-28T16:40:43.558Z,39.37
2019-02-28T16:41:43.553Z,33.75
2019-02-28T16:42:46.400Z,28.12
2019-02-28T16:43:43.527Z,28.12
2019-02-28T16:44:43.550Z,22.50
2019-02-28T16:45:43.498Z,22.50
2019-02-28T16:46:46.449Z,22.50
2019-02-28T16:48:08.881Z,16.87
2019-02-28T16:49:10.557Z,16.87
2019-02-28T16:50:08.795Z,16.87
2019-02-28T16:51:08.787Z,16.87
2019-02-28T16:52:08.763Z,16.87
2019-02-28T16:53:14.760Z,11.25
2019-02-28T16:54:33.639Z,11.25
2019-02-28T16:55:33.615Z,11.25
2019-02-28T16:56:37.501Z,11.25
2019-02-28T16:57:33.594Z,11.25
2019-02-28T16:58:33.591Z,11.25
2019-02-28T16:59:33.662Z,11.25
2019-02-28T17:00:33.571Z,5.62
2019-02-28T17:01:33.560Z,5.62
2019-02-28T17:02:33.564Z,5.62
2019-02-28T17:03:33.532Z,5.62
2019-02-28T17:04:33.521Z,5.62
2019-02-28T17:05:33.509Z,5.62
2019-02-28T17:06:35.607Z,0.00
2019-02-28T17:07:33.506Z,0.00
2019-02-28T17:08:33.480Z,0.00
2019-02-28T17:09:33.474Z,0.00
2019-02-28T17:10:33.477Z,0.00
2019-02-28T17:11:33.436Z,0.00
2019-02-28T17:12:33.438Z,0.00
2019-02-28T17:13:35.460Z,0.00
2019-02-28T17:14:33.498Z,0.00
2019-02-28T17:15:33.401Z,0.00
2019-02-28T17:16:33.758Z,0.00
2019-02-28T17:17:33.397Z,0.00
2019-02-28T17:18:33.373Z,0.00
2019-02-28T17:19:33.371Z,0.00
2019-02-28T17:20:33.406Z,0.00
2019-02-28T17:21:33.341Z,0.00
2019-02-28T17:22:33.329Z,0.00
2019-02-28T17:23:33.641Z,0.00
2019-02-28T17:24:33.330Z,0.00
2019-02-28T17:25:33.298Z,0.00
2019-02-28T17:26:33.292Z,0.00
2019-02-28T17:27:33.273Z,0.00
2019-02-28T17:28:33.253Z,0.00
2019-02-28T17:29:33.595Z,0.00
2019-02-28T17:30:36.253Z,0.00
2019-02-28T17:31:33.227Z,0.00
2019-02-28T17:32:33.222Z,0.00
2019-02-28T17:33:33.202Z,0.00
2019-02-28T17:34:33.203Z,0.00
2019-02-28T17:36:33.166Z,0.00
2019-02-28T17:37:33.185Z,0.00
2019-02-28T17:40:33.127Z,0.00
2019-02-28T21:19:47.032Z,0.00
2019-02-28T21:24:46.810Z,0.00
2019-02-28T21:26:46.788Z,0.00
2019-02-28T21:27:46.778Z,0.00
2019-02-28T21:28:46.790Z,0.00
2019-02-28T21:29:46.755Z,0.00
2019-02-28T21:31:46.739Z,0.00
2019-02-28T21:32:46.728Z,0.00
2019-02-28T21:33:46.711Z,0.00
2019-02-28T21:34:46.711Z,0.00
2019-02-28T21:35:46.694Z,0.00
2019-02-28T21:36:46.688Z,0.00
2019-02-28T21:37:46.671Z,0.00
2019-02-28T21:38:46.749Z,0.00
2019-02-28T21:39:46.662Z,0.00
2019-02-28T21:40:46.651Z,0.00
2019-02-28T21:41:46.626Z,0.00
2019-02-28T21:42:46.615Z,0.00
2019-02-28T21:43:46.611Z,0.00
